Bei Facebook empfehlenBei Twitter postenGoogle plusPinterest

Das Wetter im Erzgebirge am 05.12.2015

Wetter und Klima am 05.12.2015 Holzhau im Erzgebirge (630m ü.NN)
Letzte gemessene Temperatur und Uhrzeit der Messung23:45:00 Uhr1.60 °C
Temperatur (Maximum / Höchstwert) und Uhrzeit der Messung13:00:00 Uhr9.60 °C
Temperatur (Minimum / Tiefstwert) und Uhrzeit der Messung07:30:00-2.50 °C
Errechneter Absolutwert der Temperaturschwankungen zwischen Tmin und Tmax des Tages12.10 K
Errechnete Tagesmitteltemperatur1.43542 °C
Gesamt - Niederschlag des Tages (in flüssiger Form)0.00 Liter / m²
Luftdruck (Maximum / Höchstwert) und Zeitpunkt der Messung00:15:00 Uhr1027.60 hPa
Luftdruck (Minimum / Tiefstwert) und Zeitpunkt der Messung23:45:00 Uhr1022.70 hPa
Errechneter Absolutwert der Luftdruckschwankungen des Tages4.90 hPa
Höchste gemessene Windgeschwindigkeit und Uhrzeit der Messung06:15:00 Uhr13.32 km/h
Errechnete Windhäufigkeit in Relation zu den Messwerten des Tages32.29167 %
Niedrigste Windkühle (Windchill) und Zeitpunkt der Messung06:15:00 Uhr-6.40 °C
Taupunkt (Maximum / Höchstwert) und Uhrzeit der Messung12:30:00 Uhr6.90 °C
Taupunkt (Minimum / Tiefstwert) und Uhrzeit der Messung07:30:00-3.40 °C
Anzahl der automatisch eingelesenen Messwerte 96

Detaillierte Wetter- und Klima- Messwerte für den 05.12.2015 in Holzhau im Erzgebirge (630m ü.NN)
ZeitTemperaturLuftdruckRel. LuftfeuchteWindWindrichtungWindchillTaupunktNiederschlag l/m²
23:45:001.60 °C1022.70 hPa92.00 %0.40 °C 
23:30:001.40 °C1022.70 hPa92.00 %4.32 km/hSO1.40 °C0.20 °C 
23:15:001.60 °C1022.90 hPa92.00 %2.52 km/hOSO1.60 °C0.40 °C 
23:00:001.90 °C1022.90 hPa92.00 %0.70 °C 
22:45:001.90 °C1023.00 hPa92.00 %0.70 °C 
22:30:001.90 °C1023.00 hPa92.00 %0.70 °C 
22:15:002.40 °C1023.20 hPa92.00 %3.96 km/hOSO2.40 °C1.20 °C 
22:00:002.60 °C1023.10 hPa92.00 %1.40 °C 
21:45:002.60 °C1023.10 hPa92.00 %1.40 °C 
21:30:002.60 °C1022.90 hPa92.00 %3.96 km/hOSO2.60 °C1.40 °C 
21:15:002.40 °C1022.80 hPa91.00 %1.10 °C 
21:00:002.30 °C1022.80 hPa91.00 %1.00 °C 
20:45:002.20 °C1022.90 hPa91.00 %4.32 km/hSO2.20 °C0.90 °C 
20:30:002.00 °C1022.80 hPa91.00 %0.70 °C 
20:15:001.90 °C1023.00 hPa91.00 %0.60 °C 
20:00:001.40 °C1023.00 hPa90.00 %-0.10 °C 
19:45:001.30 °C1022.90 hPa90.00 %-0.20 °C 
19:30:000.80 °C1023.00 hPa90.00 %5.40 km/hSO-0.90 °C-0.60 °C 
19:15:000.80 °C1023.20 hPa89.00 %-0.80 °C 
19:00:000.90 °C1023.30 hPa89.00 %-0.70 °C 
18:45:001.10 °C1023.60 hPa89.00 %-0.50 °C 
18:30:001.30 °C1023.70 hPa89.00 %-0.30 °C 
18:15:001.40 °C1023.50 hPa88.00 %-0.40 °C 
18:00:001.80 °C1023.60 hPa88.00 %0.00 °C 
17:45:001.90 °C1024.00 hPa88.00 %0.10 °C 
17:30:002.10 °C1023.90 hPa87.00 %0.20 °C 
17:15:002.40 °C1024.00 hPa87.00 %0.50 °C 
17:00:002.60 °C1023.90 hPa86.00 %8.28 km/hOSO0.20 °C0.50 °C 
16:45:002.70 °C1024.10 hPa86.00 %0.60 °C 
16:30:002.80 °C1024.10 hPa85.00 %0.50 °C 
16:15:003.00 °C1023.80 hPa84.00 %0.60 °C 
16:00:003.50 °C1024.50 hPa83.00 %0.90 °C 
15:45:004.00 °C1024.60 hPa82.00 %1.80 km/hO4.00 °C1.20 °C 
15:30:004.40 °C1024.20 hPa81.00 %1.40 °C 
15:15:005.10 °C1024.10 hPa80.00 %1.90 °C 
15:00:005.60 °C1024.00 hPa79.00 %2.30 °C 
14:45:006.00 °C1023.90 hPa79.00 %2.60 °C 
14:30:006.30 °C1023.90 hPa78.00 %2.80 °C 
14:15:006.40 °C1024.10 hPa77.00 %6.48 km/hSO5.20 °C2.70 °C 
14:00:007.10 °C1024.30 hPa75.00 %10.44 km/hSSW5.10 °C3.00 °C 
13:45:007.80 °C1024.10 hPa75.00 %3.70 °C 
13:30:008.40 °C1024.10 hPa75.00 %9.00 km/hSW6.90 °C4.20 °C 
13:15:009.20 °C1024.10 hPa76.00 %5.20 °C 
13:00:009.60 °C1024.10 hPa78.00 %6.00 °C 
12:45:009.40 °C1024.70 hPa82.00 %2.52 km/hS9.40 °C6.50 °C 
12:30:009.30 °C1024.90 hPa85.00 %6.90 °C 
12:15:008.90 °C1024.80 hPa87.00 %5.40 km/hSSW8.40 °C6.90 °C 
12:00:008.40 °C1024.70 hPa90.00 %6.90 °C 
11:45:007.40 °C1024.90 hPa92.00 %6.20 °C 
11:30:006.30 °C1025.20 hPa94.00 %5.40 °C 
11:15:004.90 °C1025.40 hPa94.00 %7.92 km/hSO3.00 °C4.00 °C 
11:00:003.60 °C1025.50 hPa95.00 %2.90 °C 
10:45:002.40 °C1025.70 hPa94.00 %6.84 km/hOSO0.40 °C1.50 °C 
10:30:001.30 °C1025.60 hPa94.00 %0.40 °C 
10:15:000.70 °C1025.60 hPa94.00 %3.96 km/hOSO0.70 °C-0.20 °C 
10:00:000.20 °C1025.50 hPa94.00 %4.32 km/hOSO0.20 °C-0.60 °C 
09:45:00-0.60 °C1025.70 hPa94.00 %1.80 km/hOSO-0.60 °C-1.50 °C 
09:30:00-1.00 °C1025.80 hPa94.00 %-1.90 °C 
09:15:00-1.10 °C1025.50 hPa94.00 %-2.00 °C 
09:00:00-1.50 °C1026.00 hPa94.00 %5.04 km/hOSO-3.30 °C-2.40 °C 
08:45:00-1.60 °C1026.00 hPa94.00 %-2.50 °C 
08:30:00-1.80 °C1025.90 hPa94.00 %6.12 km/hONO-4.10 °C-2.70 °C 
08:15:00-2.20 °C1025.90 hPa94.00 %2.52 km/hOSO-2.20 °C-3.10 °C 
08:00:00-2.10 °C1026.00 hPa94.00 %-3.00 °C 
07:45:00-2.30 °C1025.80 hPa94.00 %-3.20 °C 
07:30:00-2.50 °C1025.60 hPa94.00 %-3.40 °C 
07:15:00-2.40 °C1025.40 hPa94.00 %6.12 km/hOSO-4.80 °C-3.30 °C 
07:00:00-2.10 °C1025.60 hPa94.00 %-3.00 °C 
06:45:00-1.90 °C1025.20 hPa94.00 %-2.80 °C 
06:30:00-1.90 °C1025.60 hPa94.00 %-2.80 °C 
06:15:00-1.90 °C1025.90 hPa94.00 %13.32 km/hO-6.40 °C-2.80 °C 
06:00:00-2.10 °C1026.00 hPa94.00 %-3.00 °C 
05:45:00-2.20 °C1026.20 hPa94.00 %2.52 km/hO-2.20 °C-3.10 °C 
05:30:00-2.20 °C1026.20 hPa94.00 %5.40 km/hOSO-4.30 °C-3.10 °C 
05:15:00-2.20 °C1026.20 hPa93.00 %1.44 km/hSO-2.20 °C-3.30 °C 
05:00:00-2.20 °C1026.00 hPa93.00 %-3.30 °C 
04:45:00-2.10 °C1026.00 hPa93.00 %-3.20 °C 
04:30:00-2.00 °C1025.70 hPa93.00 %5.76 km/hOSO-4.20 °C-3.10 °C 
04:15:00-1.80 °C1026.00 hPa93.00 %6.84 km/hOSO-4.40 °C-2.90 °C 
04:00:00-1.90 °C1026.30 hPa93.00 %2.52 km/hONO-1.90 °C-3.00 °C 
03:45:00-2.10 °C1026.40 hPa93.00 %-3.20 °C 
03:30:00-2.10 °C1026.80 hPa93.00 %-3.20 °C 
03:15:00-1.80 °C1027.00 hPa93.00 %-2.90 °C 
03:00:00-1.70 °C1026.90 hPa93.00 %-2.80 °C 
02:45:00-1.80 °C1026.90 hPa93.00 %1.80 km/hOSO-1.80 °C-2.90 °C 
02:30:00-1.90 °C1027.00 hPa93.00 %-3.00 °C 
02:15:00-1.90 °C1027.10 hPa93.00 %-3.00 °C 
02:00:00-1.90 °C1027.40 hPa93.00 %-3.00 °C 
01:45:00-1.80 °C1027.40 hPa93.00 %-2.90 °C 
01:30:00-1.60 °C1027.30 hPa92.00 %-2.90 °C 
01:15:00-1.10 °C1027.20 hPa92.00 %-2.40 °C 
01:00:00-1.00 °C1027.30 hPa92.00 %-2.30 °C 
00:45:00-1.00 °C1027.30 hPa92.00 %-2.30 °C 
00:30:00-0.40 °C1027.40 hPa92.00 %1.44 km/hOSO-0.40 °C-1.70 °C 
00:15:00-0.20 °C1027.60 hPa92.00 %-1.50 °C 
00:00:00-0.10 °C1027.60 hPa92.00 %-1.40 °C 

Permanenter Link zu dieser Seite: Wetter im Erzgebirge am 05.12.2015
Performance-Info: Die Erstellung der Seite / Statistik(en) / Tabelle(n) erforderte 5 Datenbankserver-Abfrage(n) und dauerte 123 Millisekunden. (Dieser Messwert ist von der Gesamt-Auslastung des Servers abhängig.)
Erzgebirge - Wetter | Erzgebirge - Wetter (Mobilgeräte) | Komplette Klimadatenbank